Pagina principală
METAR-TAF:

METAR-TAF

Aeroporturi :

Colonel James Jabara Airport

Wichita, Kansas, Statele Unite ale Americii

Latitudine: 37-44-59N, longitudine: 097-13-08W, elevație: 432 m

Observații meteo curente

Raportul a fost făcut în urmă cu 54 de minute, la 00:54 UTC
Vânt 9 kt de la Nord-vest
Temperatură 22°C
Umiditate 53%
Presiune 1008 hPa
Vizibilitate: 16.1 km
Cer senin

METAR: KAAO 220054Z AUTO 32009KT 10SM CLR 22/12 A2977 RMK AO2 SLP070 T02170117

Ora: 20:48 (01:48 UTC)


TAF: lipsă

Observații și prognoze meteo pentru peste 4.000 de aeroporturi (rapoarte METAR și TAF).

Stațiile disponibile sunt reprezentate pe hartă prin puncte galbene și roșii.

Țineți indicatorul mouse-ului pe punctul dorit pentru a vedea denumirea stației.

Apoi, faceți clic pentru a vedea observațiile și prognozele meteorologice.

Pentru a schimba harta: Pentru mărire, faceți clic pe butoanele verzi cu cruce neagră; pentru micșorare, pe butonul verde cu o liniuță; pentru hărți învecinate, pe săgețile verzi.


METAR-TAF: